Terminal Aerodrome Forecast
Issued by NWS

Home | Current Version | Previous Version | Text Only | Print | Product List | Glossary Off
Versions: 1 2 3 4 5 6 7 8 9 10 11 12 13 14

571
FTUS43 KABR 221121
TAFMBG
TAF
KMBG 221121Z 2212/2312 17011KT P6SM SKC
     FM221800 22013G20KT P6SM SCT200
     FM230100 32009KT P6SM FEW250
     FM231100 20006KT P6SM SCT070=

USA.gov is the U.S. government's official web portal to all federal, state and local government web resources and services.